Time;durP1;ratioP1;P1;durP2;ratioP2;P2;SDS_P1;SDS_P2;PMS_P1;PMS_P2;Temp;Humidity;BMP_temperature;BMP_pressure;BME280_temperature;BME280_humidity;BME280_pressure;Samples;Min_cycle;Max_cycle;Signal;HPM_P1;HPM_P2
2022/02/24 00:00:08;;;;;;;;;87.50;72.75;9.60;48.30;;;;;;4919301;29;8823;-67
2022/02/24 00:02:33;;;;;;;;;86.00;79.00;9.70;47.90;;;;;;4921160;29;8792;-67
2022/02/24 00:04:59;;;;;;;;;92.25;79.00;10.20;46.50;;;;;;4920956;29;8810;-67
2022/02/24 00:07:25;;;;;;;;;91.75;75.75;10.50;45.50;;;;;;4921214;29;8840;-68
2022/02/24 00:09:51;;;;;;;;;87.00;72.50;10.40;45.40;;;;;;4921257;29;9453;-67
2022/02/24 00:12:17;;;;;;;;;90.25;75.00;10.10;46.30;;;;;;4921043;29;9422;-67
2022/02/24 00:14:42;;;;;;;;;88.50;72.75;9.80;47.60;;;;;;4920923;29;8870;-67
2022/02/24 00:17:08;;;;;;;;;89.50;80.75;9.70;47.40;;;;;;4920792;29;8893;-67
2022/02/24 00:19:35;;;;;;;;;84.50;69.00;9.80;47.60;;;;;;4920925;29;8839;-67
2022/02/24 00:22:00;;;;;;;;;91.75;74.50;10.00;47.00;;;;;;4904010;29;9513;-67
2022/02/24 00:24:26;;;;;;;;;88.00;67.00;10.40;45.80;;;;;;4920630;29;8787;-68
2022/02/24 00:26:52;;;;;;;;;87.75;70.50;10.50;45.50;;;;;;4920638;29;8771;-67
2022/02/24 00:29:18;;;;;;;;;83.25;67.00;10.30;45.90;;;;;;4903973;29;8807;-68
2022/02/24 00:31:44;;;;;;;;;84.25;67.75;10.50;45.60;;;;;;4920577;29;8791;-68
2022/02/24 00:34:10;;;;;;;;;90.00;72.75;10.40;45.90;;;;;;4920383;29;8834;-68
2022/02/24 00:36:36;;;;;;;;;83.00;67.00;10.00;46.60;;;;;;4920697;29;8807;-67
2022/02/24 00:39:02;;;;;;;;;82.75;69.00;9.80;48.20;;;;;;4920655;29;8821;-68
2022/02/24 00:41:28;;;;;;;;;86.50;71.50;9.90;46.90;;;;;;4920355;29;8890;-68
2022/02/24 00:43:54;;;;;;;;;74.00;61.25;9.70;47.30;;;;;;4920303;29;8914;-68
2022/02/24 00:46:20;;;;;;;;;76.75;60.00;9.70;47.10;;;;;;4920313;29;8783;-68
2022/02/24 00:48:45;;;;;;;;;77.50;61.50;9.80;47.20;;;;;;4920262;29;8783;-67
2022/02/24 00:51:11;;;;;;;;;81.00;62.25;9.50;47.50;;;;;;4920188;29;8913;-68
2022/02/24 00:53:41;;;;;;;;;82.00;64.75;9.40;47.80;;;;;;4920541;29;8857;-68
2022/02/24 00:56:10;;;;;;;;;76.50;61.00;9.00;48.50;;;;;;4920181;29;9664;-68
2022/02/24 00:58:37;;;;;;;;;82.25;65.25;9.00;49.40;;;;;;4919770;29;8779;-68
2022/02/24 01:01:03;;;;;;;;;79.50;63.50;8.60;50.30;;;;;;4920073;29;8784;-67
2022/02/24 01:03:29;;;;;;;;;79.00;63.75;8.80;51.20;;;;;;4919972;29;8779;-68
2022/02/24 01:05:55;;;;;;;;;78.00;62.00;8.90;49.60;;;;;;4920072;29;8886;-68
2022/02/24 01:08:21;;;;;;;;;75.25;61.25;8.80;49.50;;;;;;4920129;29;8890;-67
2022/02/24 01:10:47;;;;;;;;;75.50;61.00;9.10;49.10;;;;;;4919890;29;8803;-67
2022/02/24 01:13:13;;;;;;;;;78.25;62.75;9.20;48.80;;;;;;4919831;29;8788;-67
2022/02/24 01:15:42;;;;;;;;;77.75;61.00;9.20;48.70;;;;;;4919871;29;8784;-67
2022/02/24 01:18:08;;;;;;;;;76.75;62.50;9.20;48.60;;;;;;4919775;29;8788;-67
2022/02/24 01:20:34;;;;;;;;;76.50;60.25;8.80;49.50;;;;;;4919655;29;8850;-68
2022/02/24 01:23:00;;;;;;;;;75.50;60.50;8.90;49.40;;;;;;4918709;29;8862;-67
2022/02/24 01:25:26;;;;;;;;;77.25;61.75;8.90;49.40;;;;;;4919680;29;8763;-67
2022/02/24 01:27:52;;;;;;;;;78.50;61.50;8.70;49.60;;;;;;4919799;29;8779;-67
2022/02/24 01:30:19;;;;;;;;;76.25;59.50;8.70;49.90;;;;;;4919784;29;8772;-68
2022/02/24 01:32:45;;;;;;;;;76.00;61.25;8.60;49.60;;;;;;4919305;29;8811;-67
2022/02/24 01:35:11;;;;;;;;;75.50;59.00;8.60;50.00;;;;;;4919501;29;8794;-68
2022/02/24 01:37:37;;;;;;;;;79.00;61.00;8.60;50.20;;;;;;4919585;29;8834;-68
2022/02/24 01:40:06;;;;;;;;;76.00;60.50;8.80;49.80;;;;;;4919213;29;9450;-67
2022/02/24 01:42:32;;;;;;;;;69.75;55.00;9.00;49.10;;;;;;4919439;29;8775;-67
2022/02/24 01:44:58;;;;;;;;;78.25;63.00;8.70;50.10;;;;;;4919290;29;9577;-67
2022/02/24 01:47:24;;;;;;;;;78.25;61.75;8.40;50.40;;;;;;4919185;29;8819;-67
2022/02/24 01:49:50;;;;;;;;;72.50;58.00;8.40;51.10;;;;;;4919411;29;8787;-67
2022/02/24 01:52:18;;;;;;;;;71.00;57.00;8.40;50.60;;;;;;4919192;29;8905;-67
2022/02/24 01:54:43;;;;;;;;;71.50;58.75;8.90;49.80;;;;;;4919094;29;8787;-67
2022/02/24 01:57:09;;;;;;;;;75.50;59.25;8.50;50.30;;;;;;4919141;29;8878;-67
2022/02/24 01:59:35;;;;;;;;;77.00;59.75;8.60;50.30;;;;;;4919114;29;9461;-67
2022/02/24 02:02:02;;;;;;;;;75.25;59.75;8.50;50.20;;;;;;4918975;29;8771;-67
2022/02/24 02:04:27;;;;;;;;;73.00;58.75;8.50;50.80;;;;;;4919126;29;9461;-68
2022/02/24 02:06:54;;;;;;;;;65.00;55.25;8.80;49.40;;;;;;4918952;29;8814;-67
2022/02/24 02:09:21;;;;;;;;;64.00;52.75;8.50;50.30;;;;;;4918214;29;8767;-67
2022/02/24 02:11:47;;;;;;;;;76.25;57.00;8.30;50.40;;;;;;4918978;29;9442;-68
2022/02/24 02:14:13;;;;;;;;;73.00;57.25;8.60;50.80;;;;;;4918792;29;8790;-67
2022/02/24 02:16:50;;;;;;;;;72.50;60.25;8.70;50.30;;;;;;4918735;29;8953;-67
2022/02/24 02:19:16;;;;;;;;;81.50;63.75;9.30;48.90;;;;;;4918596;29;8831;-67
2022/02/24 02:21:43;;;;;;;;;64.75;52.75;9.50;47.90;;;;;;4918698;29;9490;-68
2022/02/24 02:24:09;;;;;;;;;71.75;59.00;9.70;47.50;;;;;;4918613;29;8807;-68
2022/02/24 02:26:35;;;;;;;;;77.75;60.25;10.10;46.60;;;;;;4918548;29;8815;-67
2022/02/24 02:29:03;;;;;;;;;73.75;58.75;9.70;47.00;;;;;;4918437;29;8787;-67
2022/02/24 02:31:29;;;;;;;;;71.25;58.75;9.60;47.20;;;;;;4918528;29;8794;-68
2022/02/24 02:34:21;;;;;;;;;71.25;58.75;10.00;46.40;;;;;;4918209;29;8831;-68
2022/02/24 02:36:48;;;;;;;;;78.25;62.50;10.20;45.90;;;;;;4915756;29;8814;-67
2022/02/24 02:39:14;;;;;;;;;69.50;55.00;10.30;45.60;;;;;;4918478;29;8807;-68
2022/02/24 02:41:44;;;;;;;;;78.25;62.50;10.30;45.40;;;;;;4918348;29;8779;-68
2022/02/24 02:44:11;;;;;;;;;69.75;58.00;10.30;45.40;;;;;;4918525;29;8786;-67
2022/02/24 02:46:37;;;;;;;;;77.75;62.50;10.40;45.30;;;;;;4918265;29;8801;-68
2022/02/24 02:49:03;;;;;;;;;79.75;65.00;10.50;45.20;;;;;;4918247;29;8845;-67
2022/02/24 02:51:29;;;;;;;;;81.25;64.75;10.50;45.00;;;;;;4918193;29;8791;-67
2022/02/24 02:53:56;;;;;;;;;70.25;58.25;10.40;45.10;;;;;;4918449;29;8775;-67
2022/02/24 02:56:22;;;;;;;;;78.00;62.50;10.40;45.30;;;;;;4918167;29;8779;-67
2022/02/24 02:58:48;;;;;;;;;76.75;60.00;10.40;45.40;;;;;;4918353;29;8794;-68
2022/02/24 03:01:14;;;;;;;;;74.75;60.00;10.40;45.10;;;;;;4918358;29;8787;-67
2022/02/24 03:03:40;;;;;;;;;76.50;63.25;10.40;45.20;;;;;;4918015;29;9417;-67
2022/02/24 03:06:06;;;;;;;;;83.00;65.25;10.30;45.20;;;;;;4918046;29;8829;-67
2022/02/24 03:08:32;;;;;;;;;73.00;58.75;10.40;45.40;;;;;;4918235;29;8799;-67
2022/02/24 03:10:58;;;;;;;;;75.75;59.75;10.30;45.20;;;;;;4918225;29;8902;-67
2022/02/24 03:13:24;;;;;;;;;80.25;60.00;10.40;45.10;;;;;;4917904;29;8792;-67
2022/02/24 03:15:51;;;;;;;;;77.00;63.00;10.40;45.10;;;;;;4917970;29;8800;-68
2022/02/24 03:18:17;;;;;;;;;80.00;61.75;10.40;45.20;;;;;;4918225;29;8787;-68
2022/02/24 03:20:43;;;;;;;;;79.00;63.25;10.30;45.20;;;;;;4920350;29;9019;-67
2022/02/24 03:23:10;;;;;;;;;81.00;65.00;10.40;45.30;;;;;;4922143;29;8811;-68
2022/02/24 03:25:36;;;;;;;;;80.25;62.00;10.40;45.20;;;;;;4921868;29;8767;-68
2022/02/24 03:28:04;;;;;;;;;72.75;56.75;10.20;45.30;;;;;;4922021;29;8855;-67
2022/02/24 03:30:32;;;;;;;;;67.75;55.50;10.20;45.50;;;;;;4921817;29;8775;-68
2022/02/24 03:33:00;;;;;;;;;75.00;59.00;10.30;45.50;;;;;;4921539;29;8807;-67
2022/02/24 03:35:26;;;;;;;;;70.25;58.25;10.30;45.40;;;;;;4921797;29;8780;-67
2022/02/24 03:37:52;;;;;;;;;72.00;55.25;10.30;45.30;;;;;;4921815;29;8830;-68
2022/02/24 03:40:18;;;;;;;;;77.00;61.00;10.30;45.20;;;;;;4921703;29;8815;-67
2022/02/24 03:42:45;;;;;;;;;79.00;63.00;10.30;45.30;;;;;;4904720;29;8870;-68
2022/02/24 03:45:11;;;;;;;;;75.00;60.25;10.30;45.40;;;;;;4921767;29;8779;-67
2022/02/24 03:47:38;;;;;;;;;80.75;62.00;10.30;45.40;;;;;;4921603;29;8794;-68
2022/02/24 03:50:06;;;;;;;;;79.50;64.00;10.20;45.70;;;;;;4921396;29;8869;-67
2022/02/24 03:52:32;;;;;;;;;85.75;69.00;9.70;46.70;;;;;;4920406;29;8899;-67
2022/02/24 03:54:57;;;;;;;;;84.75;67.25;9.90;46.80;;;;;;4921462;29;8763;-67
2022/02/24 03:57:23;;;;;;;;;80.00;62.25;9.80;46.70;;;;;;4921217;29;8784;-67
2022/02/24 03:59:49;;;;;;;;;80.25;65.00;9.90;46.50;;;;;;4921361;29;8834;-67
2022/02/24 04:02:15;;;;;;;;;85.75;70.25;9.90;46.40;;;;;;4904450;29;8807;-67
2022/02/24 04:04:42;;;;;;;;;85.75;68.00;9.90;46.50;;;;;;4904663;29;8783;-67
2022/02/24 04:07:07;;;;;;;;;88.00;68.00;10.10;46.40;;;;;;4921054;29;8893;-68
2022/02/24 04:09:34;;;;;;;;;89.00;70.25;10.10;46.30;;;;;;4921186;29;8886;-68
2022/02/24 04:11:59;;;;;;;;;83.50;66.25;10.00;45.90;;;;;;4921461;29;8783;-68
2022/02/24 04:14:25;;;;;;;;;82.50;64.50;10.10;46.30;;;;;;4920896;29;8779;-68
2022/02/24 04:16:51;;;;;;;;;81.00;64.00;10.00;46.20;;;;;;4920948;29;8780;-68
2022/02/24 04:19:17;;;;;;;;;83.25;65.25;10.10;45.90;;;;;;4920800;29;8827;-67
2022/02/24 04:21:43;;;;;;;;;95.25;80.75;10.10;45.80;;;;;;4920729;29;8839;-68
2022/02/24 04:24:09;;;;;;;;;93.25;79.25;10.00;45.90;;;;;;4920803;29;8787;-68
2022/02/24 04:26:35;;;;;;;;;134.75;127.75;9.90;46.00;;;;;;4921071;29;9417;-68
2022/02/24 04:29:02;;;;;;;;;137.75;125.00;9.30;46.70;;;;;;4920663;29;8807;-68
2022/02/24 04:31:28;;;;;;;;;124.00;114.75;9.30;47.80;;;;;;4919735;29;8768;-68
2022/02/24 04:33:54;;;;;;;;;139.75;126.50;9.50;47.30;;;;;;4920410;29;8823;-68
2022/02/24 04:36:20;;;;;;;;;140.25;124.25;9.50;47.00;;;;;;4920570;29;8779;-68
2022/02/24 04:38:46;;;;;;;;;154.50;140.00;9.50;46.90;;;;;;4920647;29;8795;-68
2022/02/24 04:41:12;;;;;;;;;146.50;127.25;9.50;47.00;;;;;;4920443;29;8907;-68
2022/02/24 04:43:38;;;;;;;;;128.25;118.50;9.40;47.40;;;;;;4920642;29;8775;-68
2022/02/24 04:46:04;;;;;;;;;125.50;115.25;8.70;48.80;;;;;;4920362;29;9414;-68
2022/02/24 04:48:30;;;;;;;;;131.75;118.00;8.10;50.90;;;;;;4920369;29;8760;-68
2022/02/24 04:50:56;;;;;;;;;132.50;125.25;8.50;50.30;;;;;;4920521;29;9494;-68
2022/02/24 04:53:21;;;;;;;;;132.75;123.75;8.90;49.20;;;;;;4920254;29;8819;-68
2022/02/24 04:55:47;;;;;;;;;117.25;111.00;9.10;48.60;;;;;;4920469;29;8793;-68
2022/02/24 04:58:13;;;;;;;;;153.25;134.50;8.90;48.90;;;;;;4920360;29;8812;-68
2022/02/24 05:00:39;;;;;;;;;198.75;172.25;8.30;50.50;;;;;;4920034;29;9333;-68
2022/02/24 05:03:05;;;;;;;;;194.50;173.50;7.70;52.40;;;;;;4920008;29;8791;-68
2022/02/24 05:05:31;;;;;;;;;202.75;176.25;7.50;53.50;;;;;;4920193;29;8783;-68
2022/02/24 05:07:57;;;;;;;;;204.50;192.75;7.80;52.90;;;;;;4919928;29;8839;-68
2022/02/24 05:10:23;;;;;;;;;209.50;181.00;8.20;51.80;;;;;;4919945;29;8799;-68
2022/02/24 05:12:50;;;;;;;;;197.25;178.25;7.80;51.90;;;;;;4919831;29;8871;-68
2022/02/24 05:15:16;;;;;;;;;183.50;165.25;7.70;52.80;;;;;;4919866;29;8783;-67
2022/02/24 05:17:42;;;;;;;;;168.50;152.25;7.30;53.90;;;;;;4920057;29;8790;-68
2022/02/24 05:20:09;;;;;;;;;160.00;148.50;7.00;55.10;;;;;;4919393;29;9500;-68
2022/02/24 05:22:39;;;;;;;;;153.25;143.25;6.70;56.90;;;;;;4919793;29;8828;-67
2022/02/24 05:25:06;;;;;;;;;140.75;134.00;6.90;56.50;;;;;;4919902;29;8783;-67
2022/02/24 05:27:32;;;;;;;;;162.50;146.75;7.20;55.40;;;;;;4919554;29;8909;-67
2022/02/24 05:29:58;;;;;;;;;158.00;141.75;6.90;55.90;;;;;;4919580;29;8783;-68
2022/02/24 05:32:23;;;;;;;;;171.75;149.50;7.40;54.80;;;;;;4919175;29;8802;-68
2022/02/24 05:34:49;;;;;;;;;142.50;128.25;6.90;55.80;;;;;;4919337;29;8792;-68
2022/02/24 05:37:15;;;;;;;;;170.50;153.50;7.00;55.40;;;;;;4919373;29;8911;-68
2022/02/24 05:39:41;;;;;;;;;164.00;148.75;7.30;54.50;;;;;;4918242;29;8830;-68
2022/02/24 05:42:07;;;;;;;;;172.50;150.00;7.70;54.20;;;;;;4917776;29;8834;-67
2022/02/24 05:44:33;;;;;;;;;148.50;137.75;8.00;52.30;;;;;;4918459;29;8782;-67
2022/02/24 05:46:58;;;;;;;;;175.00;151.50;8.40;51.00;;;;;;4917917;29;8795;-72
2022/02/24 05:49:24;;;;;;;;;171.00;155.25;8.70;50.20;;;;;;4919074;29;8900;-67
2022/02/24 05:51:50;;;;;;;;;147.00;136.00;8.90;49.60;;;;;;4919042;29;8890;-68
2022/02/24 05:54:16;;;;;;;;;172.75;156.75;9.10;48.90;;;;;;4918958;29;8776;-70
2022/02/24 05:56:42;;;;;;;;;156.50;142.00;9.20;48.80;;;;;;4919051;29;8799;-65
2022/02/24 05:59:07;;;;;;;;;165.50;154.25;9.10;49.00;;;;;;4918945;29;8819;-66
2022/02/24 06:01:33;;;;;;;;;167.25;154.50;9.10;48.90;;;;;;4918823;29;8787;-71
2022/02/24 06:03:59;;;;;;;;;161.25;149.25;9.20;48.40;;;;;;4918929;29;8799;-66
2022/02/24 06:06:25;;;;;;;;;151.75;136.75;9.20;48.10;;;;;;4918826;29;8783;-68
2022/02/24 06:08:51;;;;;;;;;303.00;276.25;9.30;48.10;;;;;;4918714;29;8911;-69
2022/02/24 06:11:16;;;;;;;;;287.50;256.50;9.10;48.70;;;;;;4918532;29;8858;-68
2022/02/24 06:13:42;;;;;;;;;238.00;217.50;8.70;49.70;;;;;;4918580;29;8894;-68
2022/02/24 06:16:08;;;;;;;;;220.25;204.00;8.70;50.20;;;;;;4918707;29;8809;-69
2022/02/24 06:18:34;;;;;;;;;233.25;218.50;8.70;50.30;;;;;;4918524;29;8800;-67
2022/02/24 06:21:00;;;;;;;;;251.50;237.25;8.40;50.90;;;;;;4918466;29;8841;-69
2022/02/24 06:23:26;;;;;;;;;285.00;257.00;8.30;50.90;;;;;;4918511;29;9504;-69
2022/02/24 06:25:52;;;;;;;;;282.00;253.25;8.60;50.60;;;;;;4918452;29;8818;-70
2022/02/24 06:28:18;;;;;;;;;267.50;238.75;9.10;49.50;;;;;;4918425;29;8858;-69
2022/02/24 06:30:44;;;;;;;;;308.00;271.50;9.30;48.80;;;;;;4917397;29;8816;-68
2022/02/24 06:33:10;;;;;;;;;295.50;272.50;9.50;48.30;;;;;;4918276;29;8827;-68
2022/02/24 06:35:36;;;;;;;;;295.00;266.75;9.60;47.90;;;;;;4918342;29;8776;-68
2022/02/24 06:38:02;;;;;;;;;327.00;293.75;9.80;47.80;;;;;;4918590;29;8869;-70
2022/02/24 06:40:29;;;;;;;;;317.00;280.75;9.80;47.90;;;;;;4918510;29;8814;-70
2022/02/24 06:42:55;;;;;;;;;330.25;289.50;9.80;47.50;;;;;;4918419;29;9454;-72
2022/02/24 06:45:20;;;;;;;;;178.25;168.00;9.90;47.60;;;;;;4918388;29;8786;-70
2022/02/24 06:47:46;;;;;;;;;129.25;118.50;9.90;47.00;;;;;;4918384;29;8790;-70
2022/02/24 06:50:12;;;;;;;;;173.75;160.25;9.70;47.50;;;;;;4918414;29;8795;-71
2022/02/24 06:52:42;;;;;;;;;166.25;150.25;9.90;47.40;;;;;;4918320;29;8796;-71
2022/02/24 06:55:09;;;;;;;;;165.25;154.75;10.00;46.70;;;;;;4917860;29;8826;-69
2022/02/24 06:57:45;;;;;;;;;177.25;165.25;10.00;46.70;;;;;;4918074;29;8787;-66
2022/02/24 07:00:12;;;;;;;;;163.25;154.25;9.50;48.10;;;;;;4916997;29;8850;-69
2022/02/24 07:02:38;;;;;;;;;179.50;163.75;9.80;48.90;;;;;;4918222;29;9411;-71
2022/02/24 07:05:05;;;;;;;;;167.00;153.25;9.90;47.60;;;;;;4917723;29;8879;-71
2022/02/24 07:07:33;;;;;;;;;134.00;121.00;10.10;47.10;;;;;;4917617;29;8859;-71
2022/02/24 07:09:59;;;;;;;;;144.25;131.00;10.20;46.60;;;;;;4918159;29;8850;-72
2022/02/24 07:12:25;;;;;;;;;134.50;122.50;10.40;46.00;;;;;;4918096;29;8847;-72
2022/02/24 07:14:51;;;;;;;;;153.50;140.00;10.50;45.80;;;;;;4917990;29;8779;-67
2022/02/24 07:17:16;;;;;;;;;157.00;145.75;10.60;45.30;;;;;;4917966;29;8894;-69
2022/02/24 07:19:42;;;;;;;;;138.50;129.50;10.80;45.40;;;;;;4917868;29;8838;-66
2022/02/24 07:22:08;;;;;;;;;123.25;112.25;10.50;46.10;;;;;;4918010;29;8807;-65
2022/02/24 07:24:33;;;;;;;;;111.75;100.75;10.50;46.00;;;;;;4918281;29;8893;-66
2022/02/24 07:26:59;;;;;;;;;133.75;125.50;10.60;45.80;;;;;;4918077;29;9484;-68
2022/02/24 07:29:25;;;;;;;;;121.25;113.50;10.80;46.50;;;;;;4918036;29;8807;-65
2022/02/24 07:31:51;;;;;;;;;151.75;139.75;10.90;45.40;;;;;;4917774;29;8779;-64
2022/02/24 07:34:17;;;;;;;;;161.25;153.00;10.90;45.90;;;;;;4917718;29;8859;-64
2022/02/24 07:36:43;;;;;;;;;176.50;161.50;10.60;46.80;;;;;;4918073;29;8788;-65
2022/02/24 07:39:13;;;;;;;;;181.75;168.00;10.60;47.00;;;;;;4917880;29;9466;-65
2022/02/24 07:41:40;;;;;;;;;181.50;166.75;10.50;47.20;;;;;;4917972;29;8886;-64
2022/02/24 07:44:06;;;;;;;;;181.50;166.25;10.60;47.00;;;;;;4917738;29;8760;-67
2022/02/24 07:46:33;;;;;;;;;201.00;186.00;10.90;46.80;;;;;;4917670;29;8834;-66
2022/02/24 07:49:00;;;;;;;;;164.75;154.50;10.80;46.80;;;;;;4917673;29;8791;-66
2022/02/24 07:51:26;;;;;;;;;146.00;139.50;10.60;46.90;;;;;;4917717;29;8783;-64
2022/02/24 07:53:52;;;;;;;;;126.50;115.00;10.80;46.60;;;;;;4917890;29;8779;-65
2022/02/24 07:56:18;;;;;;;;;116.75;107.50;10.70;45.80;;;;;;4917867;29;8775;-69
2022/02/24 07:58:44;;;;;;;;;114.50;106.75;10.60;46.00;;;;;;4917899;29;8791;-69
2022/02/24 08:01:10;;;;;;;;;104.50;95.25;11.00;45.60;;;;;;4917568;29;8910;-68
2022/02/24 08:03:36;;;;;;;;;84.50;68.50;11.20;44.60;;;;;;4917637;29;8783;-64
2022/02/24 08:06:03;;;;;;;;;80.25;63.00;11.10;44.10;;;;;;4917760;29;8820;-64
2022/02/24 08:08:29;;;;;;;;;78.25;61.25;11.20;43.50;;;;;;4920630;29;8795;-65
2022/02/24 08:10:55;;;;;;;;;76.25;62.50;11.20;43.60;;;;;;4921011;29;8917;-65
2022/02/24 08:13:22;;;;;;;;;76.75;61.75;11.40;43.00;;;;;;4921199;29;9657;-64
2022/02/24 08:15:48;;;;;;;;;83.75;64.75;11.50;42.60;;;;;;4920856;29;8779;-64
2022/02/24 08:18:15;;;;;;;;;79.25;64.00;11.60;42.90;;;;;;4920749;29;9429;-65
2022/02/24 08:20:41;;;;;;;;;75.00;59.50;11.70;42.50;;;;;;4920934;29;8815;-64
2022/02/24 08:23:09;;;;;;;;;74.50;59.00;11.50;42.20;;;;;;4920914;29;8823;-64
2022/02/24 08:25:34;;;;;;;;;90.50;86.75;11.50;42.40;;;;;;4920714;29;8787;-64
2022/02/24 08:28:01;;;;;;;;;106.00;94.25;11.90;42.20;;;;;;4920609;29;8791;-64
2022/02/24 08:30:27;;;;;;;;;110.25;98.75;12.10;42.30;;;;;;4920813;29;8775;-64
2022/02/24 08:32:53;;;;;;;;;115.50;105.25;11.70;43.10;;;;;;4920488;29;8811;-65
2022/02/24 08:35:21;;;;;;;;;106.50;100.50;11.80;43.30;;;;;;4920457;29;8791;-65
2022/02/24 08:37:47;;;;;;;;;96.00;89.50;11.90;42.80;;;;;;4920676;29;8917;-63
2022/02/24 08:40:15;;;;;;;;;95.75;82.00;11.80;43.80;;;;;;4920437;29;8807;-68
2022/02/24 08:42:41;;;;;;;;;94.25;90.00;12.10;42.40;;;;;;4920418;29;8768;-67
2022/02/24 08:45:08;;;;;;;;;93.75;85.75;12.40;42.50;;;;;;4920552;29;8779;-70
2022/02/24 08:47:35;;;;;;;;;84.00;71.75;12.40;42.90;;;;;;4920320;29;8803;-68
2022/02/24 08:50:01;;;;;;;;;86.50;73.25;12.30;43.20;;;;;;4920480;29;8783;-67
2022/02/24 08:52:28;;;;;;;;;78.50;63.50;12.60;42.30;;;;;;4920341;29;8950;-68
2022/02/24 08:54:53;;;;;;;;;76.00;59.25;12.10;43.60;;;;;;4920205;29;8776;-64
2022/02/24 08:57:19;;;;;;;;;71.00;56.25;12.30;42.90;;;;;;4920101;29;8795;-63
2022/02/24 08:59:45;;;;;;;;;60.75;50.75;12.50;42.70;;;;;;4919811;29;8956;-64
2022/02/24 09:02:11;;;;;;;;;62.00;50.75;12.10;42.90;;;;;;4919853;29;8783;-64
2022/02/24 09:04:36;;;;;;;;;65.75;52.50;12.60;41.50;;;;;;4920104;29;8779;-63
2022/02/24 09:07:02;;;;;;;;;55.75;46.75;13.10;41.10;;;;;;4920056;29;8779;-63
2022/02/24 09:09:28;;;;;;;;;59.00;47.25;12.60;42.40;;;;;;4919981;29;8889;-63
2022/02/24 09:11:54;;;;;;;;;62.50;51.75;12.70;41.60;;;;;;4919902;29;8803;-62
2022/02/24 09:14:21;;;;;;;;;57.00;47.50;12.60;41.50;;;;;;4919885;29;8795;-62
2022/02/24 09:16:46;;;;;;;;;63.50;50.50;13.10;40.30;;;;;;4919663;29;8779;-66
2022/02/24 09:19:13;;;;;;;;;56.75;46.50;13.10;40.40;;;;;;4919201;29;8841;-66
2022/02/24 09:21:39;;;;;;;;;50.25;42.00;12.90;40.70;;;;;;4919494;29;8791;-67
2022/02/24 09:24:06;;;;;;;;;47.25;39.00;12.70;40.70;;;;;;4919652;29;8807;-66
2022/02/24 09:26:33;;;;;;;;;45.25;37.75;12.80;40.90;;;;;;4919740;29;8811;-66
2022/02/24 09:29:00;;;;;;;;;40.75;37.00;12.50;41.60;;;;;;4919654;29;8870;-67
2022/02/24 09:31:27;;;;;;;;;42.25;36.25;12.60;41.50;;;;;;4919697;29;8768;-66
2022/02/24 09:33:53;;;;;;;;;40.00;36.50;12.40;41.80;;;;;;4919469;29;8788;-66
2022/02/24 09:36:19;;;;;;;;;31.50;31.00;13.00;40.30;;;;;;4919586;29;8779;-66
2022/02/24 09:38:45;;;;;;;;;36.50;31.75;13.40;39.40;;;;;;4919750;29;8815;-66
2022/02/24 09:41:11;;;;;;;;;31.25;29.50;13.50;38.70;;;;;;4919384;29;8845;-66
2022/02/24 09:43:38;;;;;;;;;34.25;33.25;13.20;39.40;;;;;;4919434;29;9522;-66
2022/02/24 09:46:09;;;;;;;;;31.00;30.00;13.20;40.70;;;;;;4919482;29;8792;-66
2022/02/24 09:48:41;;;;;;;;;26.00;23.25;13.00;40.10;;;;;;4919085;29;8791;-66
2022/02/24 09:51:10;;;;;;;;;31.00;27.25;13.40;38.50;;;;;;4919298;29;8950;-66
2022/02/24 09:53:37;;;;;;;;;30.00;26.75;13.90;37.90;;;;;;4919554;29;8823;-66
2022/02/24 09:56:04;;;;;;;;;28.25;27.00;13.50;39.00;;;;;;4918907;29;8801;-66
2022/02/24 09:58:31;;;;;;;;;28.50;27.25;13.00;40.30;;;;;;4917411;29;8780;-66
2022/02/24 10:00:59;;;;;;;;;26.00;21.00;12.60;42.40;;;;;;4919031;29;8834;-66
2022/02/24 10:03:31;;;;;;;;;22.75;22.00;12.60;40.50;;;;;;4918983;29;8788;-66
2022/02/24 10:05:59;;;;;;;;;21.33;20.33;13.00;39.70;;;;;;4918627;29;8898;-66
2022/02/24 10:08:33;;;;;;;;;17.33;16.33;12.80;40.00;;;;;;4919111;29;8845;-66
2022/02/24 10:11:02;;;;;;;;;17.67;16.33;12.90;40.40;;;;;;4919091;29;8780;-66
2022/02/24 10:13:29;;;;;;;;;21.67;20.00;12.80;39.60;;;;;;4918978;29;8874;-64
2022/02/24 10:16:02;;;;;;;;;22.50;22.50;13.50;38.30;;;;;;4919205;29;8826;-71
2022/02/24 10:18:32;;;;;;;;;19.67;16.67;13.80;38.00;;;;;;4918859;29;8901;-68
2022/02/24 10:21:03;;;;;;;;;15.67;14.33;13.40;37.40;;;;;;4918645;29;8826;-69
2022/02/24 10:23:34;;;;;;;;;7.00;6.00;13.90;36.30;;;;;;4918888;29;8823;-69
2022/02/24 10:26:10;;;;;;;;;12.33;12.00;14.40;34.40;;;;;;4918636;29;8794;-68
2022/02/24 10:28:47;;;;;;;;;15.00;13.33;14.60;32.90;;;;;;4918841;29;9439;-69
2022/02/24 10:31:14;;;;;;;;;13.33;12.67;15.20;31.80;;;;;;4918020;29;8854;-68
2022/02/24 10:33:44;;;;;;;;;14.67;14.67;16.10;32.80;;;;;;4918380;29;8827;-68
2022/02/24 10:36:20;;;;;;;;;16.00;15.00;16.80;30.30;;;;;;4918813;29;8798;-70
2022/02/24 10:39:01;;;;;;;;;14.67;12.33;16.90;30.80;;;;;;4918626;29;8811;-69
2022/02/24 10:41:36;;;;;;;;;11.67;10.00;17.50;29.10;;;;;;4918493;29;8866;-71
2022/02/24 10:44:20;;;;;;;;;17.00;13.67;22.10;24.50;;;;;;4918384;29;8778;-70
2022/02/24 10:46:54;;;;;;;;;26.67;23.33;25.60;22.40;;;;;;4918206;29;8787;-71
2022/02/24 10:49:35;;;;;;;;;14.00;12.00;28.90;19.60;;;;;;4918129;29;8882;-72
2022/02/24 10:52:17;;;;;;;;;7.25;7.25;31.20;17.80;;;;;;4918179;29;11589;-69
2022/02/24 10:54:55;;;;;;;;;8.00;8.00;34.50;17.00;;;;;;4918147;29;11510;-70
2022/02/24 10:57:25;;;;;;;;;10.00;10.00;34.00;15.20;;;;;;4918331;29;11513;-70
2022/02/24 10:59:55;;;;;;;;;9.00;9.00;31.40;15.50;;;;;;4918141;29;11553;-69
2022/02/24 11:02:23;;;;;;;;;8.25;8.25;26.90;16.80;;;;;;4918306;29;11651;-68
2022/02/24 11:04:55;;;;;;;;;9.00;9.00;23.20;20.30;;;;;;4917916;29;11531;-72
2022/02/24 11:07:22;;;;;;;;;10.50;10.50;21.60;22.20;;;;;;4917981;29;11605;-70
2022/02/24 11:09:48;;;;;;;;;8.00;8.00;21.30;22.30;;;;;;4917904;29;11570;-71
2022/02/24 11:12:16;;;;;;;;;7.50;7.50;22.40;22.10;;;;;;4917881;29;11524;-70
2022/02/24 11:14:45;;;;;;;;;6.00;6.00;28.50;17.80;;;;;;4918163;29;8884;-65
2022/02/24 11:17:12;;;;;;;;;10.75;10.75;33.70;15.80;;;;;;4917680;29;11595;-72
2022/02/24 11:19:40;;;;;;;;;12.25;12.25;36.00;15.00;;;;;;4917683;29;12280;-73
2022/02/24 11:22:07;;;;;;;;;7.00;7.00;37.30;14.30;;;;;;4917698;29;11601;-75
2022/02/24 11:24:34;;;;;;;;;7.25;7.25;36.00;13.10;;;;;;4917758;29;12267;-73
2022/02/24 11:27:11;;;;;;;;;5.00;5.00;38.10;13.50;;;;;;4917933;29;11537;-73
2022/02/24 11:29:39;;;;;;;;;5.50;5.50;38.80;12.50;;;;;;4917738;29;12214;-75
2022/02/24 11:32:11;;;;;;;;;6.25;6.25;36.10;12.60;;;;;;4917399;29;12239;-70
2022/02/24 11:35:07;;;;;;;;;10.00;10.00;34.80;13.30;;;;;;4917824;29;11559;-69
2022/02/24 11:37:42;;;;;;;;;7.00;7.00;35.00;14.00;;;;;;4917828;29;12216;-68
2022/02/24 11:40:10;;;;;;;;;8.00;8.00;35.10;14.00;;;;;;4917586;29;11638;-68
2022/02/24 11:42:38;;;;;;;;;8.00;8.00;35.10;12.80;;;;;;4920898;29;11512;-70
2022/02/24 11:45:23;;;;;;;;;4.25;4.25;37.20;12.60;;;;;;4921673;29;11549;-70
2022/02/24 11:48:07;;;;;;;;;8.00;8.00;37.40;12.10;;;;;;4921233;29;11531;-69
2022/02/24 11:50:45;;;;;;;;;3.00;3.00;37.60;12.30;;;;;;4921251;29;11587;-70
2022/02/24 11:53:25;;;;;;;;;8.25;8.25;40.30;11.90;;;;;;4921530;29;12578;-68
2022/02/24 11:55:55;;;;;;;;;8.25;8.25;37.90;11.50;;;;;;4921205;29;11540;-71
2022/02/24 11:58:29;;;;;;;;;6.25;6.25;36.20;12.60;;;;;;4921208;29;11525;-67
2022/02/24 12:01:49;;;;;;;;;6.25;6.25;36.30;12.60;;;;;;4920908;29;11577;-66
2022/02/24 12:04:17;;;;;;;;;7.75;7.75;37.40;12.00;;;;;;4881220;29;11490;-67
2022/02/24 12:07:11;;;;;;;;;7.00;7.00;35.90;12.50;;;;;;4881462;29;11629;-67
2022/02/24 12:09:38;;;;;;;;;7.00;7.00;36.50;12.80;;;;;;4881416;29;11491;-70
2022/02/24 12:12:23;;;;;;;;;9.75;9.75;36.50;12.70;;;;;;4865709;29;11485;-66
2022/02/24 12:15:18;;;;;;;;;10.50;10.50;34.60;13.10;;;;;;4881178;29;11488;-67
2022/02/24 12:17:46;;;;;;;;;6.75;6.75;36.20;12.40;;;;;;4876520;29;11477;-66
2022/02/24 12:20:39;;;;;;;;;9.25;9.25;34.80;13.10;;;;;;4881041;29;11529;-66
2022/02/24 12:23:22;;;;;;;;;8.75;8.75;34.80;13.00;;;;;;4878536;29;11637;-66
2022/02/24 12:26:08;;;;;;;;;5.50;5.50;36.00;12.70;;;;;;4881103;29;12224;-66
2022/02/24 12:28:36;;;;;;;;;9.00;9.00;36.10;12.60;;;;;;4880915;29;11467;-66
2022/02/24 12:31:02;;;;;;;;;6.25;6.25;38.90;11.90;;;;;;4880969;29;11512;-66
2022/02/24 12:33:33;;;;;;;;;7.00;7.00;38.70;11.50;;;;;;4880772;29;11519;-67
2022/02/24 12:35:58;;;;;;;;;10.25;10.25;41.00;11.30;;;;;;4881035;29;8895;-67
2022/02/24 12:38:24;;;;;;;;;7.25;7.25;39.80;11.30;;;;;;4880822;29;11632;-67